Aviation Digital Data Service (ADDS)

Output produced by TAFs form (0923 UTC 31 July 2014)
found at http://aviationweather.gov/adds/tafs/
 
KMTJ 310532Z 3106/0106 16005KT P6SM FEW070 BKN130 
     FM311600 35004KT P6SM SCT150 
     FM311900 33007KT P6SM VCTS FEW100CB SCT150 
     FM010200 14006KT P6SM SCT100 BKN150